sensor_id;sensor_type;location;lat;lon;timestamp;P1;durP1;ratioP1;P2;durP2;ratioP2
36797;SDS011;22748;8.426;99.512;2023-03-23T00:01:38;55.63;;;38.22;;
36797;SDS011;22748;8.426;99.512;2023-03-23T00:04:15;70.13;;;46.60;;
36797;SDS011;22748;8.426;99.512;2023-03-23T00:06:46;104.88;;;76.45;;
36797;SDS011;22748;8.426;99.512;2023-03-23T00:09:17;67.60;;;48.30;;
36797;SDS011;22748;8.426;99.512;2023-03-23T00:11:50;26.67;;;19.75;;
36797;SDS011;22748;8.426;99.512;2023-03-23T00:14:25;30.85;;;16.67;;
36797;SDS011;22748;8.426;99.512;2023-03-23T00:16:56;23.27;;;15.45;;
36797;SDS011;22748;8.426;99.512;2023-03-23T00:19:30;31.73;;;18.48;;
36797;SDS011;22748;8.426;99.512;2023-03-23T00:22:00;22.67;;;16.33;;
36797;SDS011;22748;8.426;99.512;2023-03-23T00:24:32;21.00;;;17.95;;
36797;SDS011;22748;8.426;99.512;2023-03-23T00:27:02;103.35;;;70.18;;
36797;SDS011;22748;8.426;99.512;2023-03-23T00:29:36;65.20;;;45.78;;
36797;SDS011;22748;8.426;99.512;2023-03-23T00:32:08;44.78;;;30.17;;
36797;SDS011;22748;8.426;99.512;2023-03-23T00:34:40;37.92;;;24.77;;
36797;SDS011;22748;8.426;99.512;2023-03-23T00:37:12;22.85;;;16.40;;
36797;SDS011;22748;8.426;99.512;2023-03-23T00:39:44;18.02;;;14.48;;
36797;SDS011;22748;8.426;99.512;2023-03-23T00:42:15;15.10;;;13.20;;
36797;SDS011;22748;8.426;99.512;2023-03-23T00:44:49;18.42;;;12.35;;
36797;SDS011;22748;8.426;99.512;2023-03-23T00:47:27;20.45;;;13.15;;
36797;SDS011;22748;8.426;99.512;2023-03-23T00:49:57;27.45;;;14.70;;
36797;SDS011;22748;8.426;99.512;2023-03-23T00:52:29;24.17;;;15.00;;
36797;SDS011;22748;8.426;99.512;2023-03-23T00:55:03;18.42;;;14.05;;
36797;SDS011;22748;8.426;99.512;2023-03-23T00:57:34;32.75;;;21.02;;
36797;SDS011;22748;8.426;99.512;2023-03-23T01:00:13;55.92;;;23.00;;
36797;SDS011;22748;8.426;99.512;2023-03-23T01:02:45;40.88;;;24.98;;
36797;SDS011;22748;8.426;99.512;2023-03-23T01:05:18;30.48;;;16.77;;
36797;SDS011;22748;8.426;99.512;2023-03-23T01:07:48;24.60;;;15.95;;
36797;SDS011;22748;8.426;99.512;2023-03-23T01:10:19;24.48;;;13.50;;
36797;SDS011;22748;8.426;99.512;2023-03-23T01:12:52;25.73;;;13.38;;
36797;SDS011;22748;8.426;99.512;2023-03-23T01:15:27;26.08;;;14.88;;
36797;SDS011;22748;8.426;99.512;2023-03-23T01:17:58;31.50;;;13.38;;
36797;SDS011;22748;8.426;99.512;2023-03-23T01:20:31;29.08;;;13.85;;
36797;SDS011;22748;8.426;99.512;2023-03-23T01:23:02;23.08;;;13.20;;
36797;SDS011;22748;8.426;99.512;2023-03-23T01:25:35;19.73;;;13.43;;
36797;SDS011;22748;8.426;99.512;2023-03-23T01:28:05;20.83;;;13.15;;
36797;SDS011;22748;8.426;99.512;2023-03-23T01:30:42;19.73;;;13.30;;
36797;SDS011;22748;8.426;99.512;2023-03-23T01:33:14;19.00;;;13.25;;
36797;SDS011;22748;8.426;99.512;2023-03-23T01:35:44;21.05;;;13.70;;
36797;SDS011;22748;8.426;99.512;2023-03-23T01:38:15;26.13;;;14.03;;
36797;SDS011;22748;8.426;99.512;2023-03-23T01:40:46;17.50;;;13.95;;
36797;SDS011;22748;8.426;99.512;2023-03-23T01:43:16;24.58;;;16.33;;
36797;SDS011;22748;8.426;99.512;2023-03-23T01:45:56;43.60;;;25.50;;
36797;SDS011;22748;8.426;99.512;2023-03-23T01:48:27;51.15;;;31.33;;
36797;SDS011;22748;8.426;99.512;2023-03-23T01:51:15;38.35;;;21.35;;
36797;SDS011;22748;8.426;99.512;2023-03-23T01:53:48;27.40;;;16.65;;
36797;SDS011;22748;8.426;99.512;2023-03-23T01:56:26;25.48;;;16.42;;
36797;SDS011;22748;8.426;99.512;2023-03-23T01:59:01;61.97;;;20.58;;
36797;SDS011;22748;8.426;99.512;2023-03-23T02:01:38;35.45;;;14.90;;
36797;SDS011;22748;8.426;99.512;2023-03-23T02:04:11;25.73;;;14.75;;
36797;SDS011;22748;8.426;99.512;2023-03-23T02:06:43;25.75;;;12.85;;
36797;SDS011;22748;8.426;99.512;2023-03-23T02:09:14;13.10;;;10.95;;
36797;SDS011;22748;8.426;99.512;2023-03-23T02:11:45;15.13;;;11.25;;
36797;SDS011;22748;8.426;99.512;2023-03-23T02:14:23;14.68;;;10.93;;
36797;SDS011;22748;8.426;99.512;2023-03-23T02:17:09;13.82;;;11.40;;
36797;SDS011;22748;8.426;99.512;2023-03-23T02:22:52;23.92;;;12.20;;
36797;SDS011;22748;8.426;99.512;2023-03-23T02:26:00;16.35;;;12.43;;
36797;SDS011;22748;8.426;99.512;2023-03-23T02:34:39;14.48;;;11.90;;
36797;SDS011;22748;8.426;99.512;2023-03-23T02:37:16;15.13;;;12.25;;
36797;SDS011;22748;8.426;99.512;2023-03-23T02:40:04;27.45;;;13.57;;
36797;SDS011;22748;8.426;99.512;2023-03-23T02:42:38;19.48;;;11.93;;
36797;SDS011;22748;8.426;99.512;2023-03-23T02:45:12;15.23;;;12.57;;
36797;SDS011;22748;8.426;99.512;2023-03-23T02:47:45;21.10;;;13.40;;
36797;SDS011;22748;8.426;99.512;2023-03-23T02:50:42;18.20;;;12.60;;
36797;SDS011;22748;8.426;99.512;2023-03-23T02:53:16;16.88;;;12.32;;
36797;SDS011;22748;8.426;99.512;2023-03-23T02:56:05;14.07;;;11.32;;
36797;SDS011;22748;8.426;99.512;2023-03-23T02:58:38;14.52;;;11.00;;
36797;SDS011;22748;8.426;99.512;2023-03-23T03:01:16;12.52;;;10.73;;
36797;SDS011;22748;8.426;99.512;2023-03-23T03:04:32;13.48;;;10.93;;
36797;SDS011;22748;8.426;99.512;2023-03-23T03:07:21;15.50;;;11.63;;
36797;SDS011;22748;8.426;99.512;2023-03-23T03:10:12;24.30;;;13.03;;
36797;SDS011;22748;8.426;99.512;2023-03-23T03:12:55;15.93;;;12.52;;
36797;SDS011;22748;8.426;99.512;2023-03-23T03:15:33;16.85;;;11.77;;
36797;SDS011;22748;8.426;99.512;2023-03-23T03:18:16;16.92;;;11.77;;
36797;SDS011;22748;8.426;99.512;2023-03-23T03:20:50;20.77;;;12.55;;
36797;SDS011;22748;8.426;99.512;2023-03-23T03:23:34;15.70;;;11.23;;
36797;SDS011;22748;8.426;99.512;2023-03-23T03:26:08;23.95;;;13.68;;
36797;SDS011;22748;8.426;99.512;2023-03-23T03:28:43;22.77;;;13.52;;
36797;SDS011;22748;8.426;99.512;2023-03-23T03:31:22;12.50;;;11.07;;
36797;SDS011;22748;8.426;99.512;2023-03-23T03:34:03;28.17;;;14.00;;
36797;SDS011;22748;8.426;99.512;2023-03-23T03:36:34;19.50;;;12.32;;
36797;SDS011;22748;8.426;99.512;2023-03-23T03:39:24;22.92;;;11.82;;
36797;SDS011;22748;8.426;99.512;2023-03-23T03:41:56;16.35;;;12.02;;
36797;SDS011;22748;8.426;99.512;2023-03-23T03:44:27;15.20;;;11.45;;
36797;SDS011;22748;8.426;99.512;2023-03-23T03:46:58;16.70;;;11.07;;
36797;SDS011;22748;8.426;99.512;2023-03-23T03:49:34;13.95;;;10.75;;
36797;SDS011;22748;8.426;99.512;2023-03-23T03:52:08;12.32;;;10.57;;
36797;SDS011;22748;8.426;99.512;2023-03-23T03:54:40;38.28;;;15.68;;
36797;SDS011;22748;8.426;99.512;2023-03-23T03:57:16;17.20;;;11.95;;
36797;SDS011;22748;8.426;99.512;2023-03-23T03:59:46;47.53;;;13.40;;
36797;SDS011;22748;8.426;99.512;2023-03-23T04:02:25;27.58;;;13.20;;
36797;SDS011;22748;8.426;99.512;2023-03-23T04:05:11;18.33;;;11.13;;
36797;SDS011;22748;8.426;99.512;2023-03-23T04:07:47;12.43;;;11.02;;
36797;SDS011;22748;8.426;99.512;2023-03-23T04:10:31;16.73;;;11.70;;
36797;SDS011;22748;8.426;99.512;2023-03-23T04:13:01;27.08;;;13.32;;
36797;SDS011;22748;8.426;99.512;2023-03-23T04:18:08;18.05;;;12.95;;
36797;SDS011;22748;8.426;99.512;2023-03-23T04:20:40;13.98;;;12.27;;
36797;SDS011;22748;8.426;99.512;2023-03-23T04:23:17;16.70;;;12.20;;
36797;SDS011;22748;8.426;99.512;2023-03-23T04:26:03;37.03;;;12.32;;
36797;SDS011;22748;8.426;99.512;2023-03-23T04:28:41;17.80;;;10.88;;
36797;SDS011;22748;8.426;99.512;2023-03-23T04:31:24;11.90;;;10.57;;
36797;SDS011;22748;8.426;99.512;2023-03-23T04:34:06;10.73;;;9.77;;
36797;SDS011;22748;8.426;99.512;2023-03-23T04:36:39;10.70;;;9.60;;
36797;SDS011;22748;8.426;99.512;2023-03-23T04:39:16;11.48;;;10.30;;
36797;SDS011;22748;8.426;99.512;2023-03-23T04:41:57;30.92;;;12.40;;
36797;SDS011;22748;8.426;99.512;2023-03-23T04:44:35;17.02;;;10.40;;
36797;SDS011;22748;8.426;99.512;2023-03-23T04:47:06;12.55;;;10.27;;
36797;SDS011;22748;8.426;99.512;2023-03-23T04:49:43;23.63;;;13.00;;
36797;SDS011;22748;8.426;99.512;2023-03-23T04:52:15;22.00;;;12.18;;
36797;SDS011;22748;8.426;99.512;2023-03-23T04:54:47;29.35;;;14.20;;
36797;SDS011;22748;8.426;99.512;2023-03-23T04:57:35;35.25;;;13.70;;
36797;SDS011;22748;8.426;99.512;2023-03-23T05:00:07;30.02;;;12.55;;
36797;SDS011;22748;8.426;99.512;2023-03-23T05:02:47;21.80;;;11.73;;
36797;SDS011;22748;8.426;99.512;2023-03-23T05:05:24;20.65;;;11.05;;
36797;SDS011;22748;8.426;99.512;2023-03-23T05:08:01;19.13;;;11.63;;
36797;SDS011;22748;8.426;99.512;2023-03-23T05:10:32;13.65;;;10.38;;
36797;SDS011;22748;8.426;99.512;2023-03-23T05:13:11;12.02;;;10.68;;
36797;SDS011;22748;8.426;99.512;2023-03-23T05:15:41;14.90;;;11.52;;
36797;SDS011;22748;8.426;99.512;2023-03-23T05:18:13;51.63;;;13.43;;
36797;SDS011;22748;8.426;99.512;2023-03-23T05:20:43;25.02;;;11.43;;
36797;SDS011;22748;8.426;99.512;2023-03-23T05:25:52;23.08;;;11.25;;
36797;SDS011;22748;8.426;99.512;2023-03-23T05:28:25;33.35;;;11.45;;
36797;SDS011;22748;8.426;99.512;2023-03-23T05:30:58;17.25;;;9.88;;
36797;SDS011;22748;8.426;99.512;2023-03-23T05:33:30;17.88;;;9.55;;
36797;SDS011;22748;8.426;99.512;2023-03-23T05:36:06;16.58;;;10.35;;
36797;SDS011;22748;8.426;99.512;2023-03-23T05:38:40;37.67;;;11.40;;
36797;SDS011;22748;8.426;99.512;2023-03-23T05:41:14;23.65;;;10.85;;
36797;SDS011;22748;8.426;99.512;2023-03-23T05:43:48;10.40;;;9.35;;
36797;SDS011;22748;8.426;99.512;2023-03-23T05:46:20;35.80;;;11.80;;
36797;SDS011;22748;8.426;99.512;2023-03-23T05:48:51;13.43;;;9.60;;
36797;SDS011;22748;8.426;99.512;2023-03-23T05:51:22;15.68;;;10.45;;
36797;SDS011;22748;8.426;99.512;2023-03-23T05:53:53;12.05;;;10.60;;
36797;SDS011;22748;8.426;99.512;2023-03-23T05:56:25;11.40;;;10.30;;
36797;SDS011;22748;8.426;99.512;2023-03-23T05:58:59;20.27;;;9.27;;
36797;SDS011;22748;8.426;99.512;2023-03-23T06:01:35;10.70;;;9.43;;
36797;SDS011;22748;8.426;99.512;2023-03-23T06:04:07;54.10;;;13.50;;
36797;SDS011;22748;8.426;99.512;2023-03-23T06:06:38;24.90;;;10.63;;
36797;SDS011;22748;8.426;99.512;2023-03-23T06:09:09;13.80;;;9.52;;
36797;SDS011;22748;8.426;99.512;2023-03-23T06:11:40;17.52;;;10.00;;
36797;SDS011;22748;8.426;99.512;2023-03-23T06:14:12;12.77;;;10.07;;
36797;SDS011;22748;8.426;99.512;2023-03-23T06:16:43;14.73;;;10.52;;
36797;SDS011;22748;8.426;99.512;2023-03-23T06:19:13;19.27;;;10.00;;
36797;SDS011;22748;8.426;99.512;2023-03-23T06:21:49;27.38;;;10.40;;
36797;SDS011;22748;8.426;99.512;2023-03-23T06:24:20;10.63;;;9.38;;
36797;SDS011;22748;8.426;99.512;2023-03-23T06:26:50;15.60;;;9.65;;
36797;SDS011;22748;8.426;99.512;2023-03-23T06:29:22;9.35;;;8.40;;
36797;SDS011;22748;8.426;99.512;2023-03-23T06:31:54;10.00;;;8.07;;
36797;SDS011;22748;8.426;99.512;2023-03-23T06:34:29;8.68;;;7.78;;
36797;SDS011;22748;8.426;99.512;2023-03-23T06:37:00;8.07;;;7.38;;
36797;SDS011;22748;8.426;99.512;2023-03-23T06:39:45;12.77;;;7.90;;
36797;SDS011;22748;8.426;99.512;2023-03-23T06:42:16;18.13;;;7.55;;
36797;SDS011;22748;8.426;99.512;2023-03-23T06:44:56;10.77;;;7.68;;
36797;SDS011;22748;8.426;99.512;2023-03-23T06:47:28;8.70;;;7.63;;
36797;SDS011;22748;8.426;99.512;2023-03-23T06:49:59;9.05;;;7.65;;
36797;SDS011;22748;8.426;99.512;2023-03-23T06:54:59;12.60;;;8.15;;
36797;SDS011;22748;8.426;99.512;2023-03-23T06:57:29;12.05;;;7.90;;
36797;SDS011;22748;8.426;99.512;2023-03-23T07:00:03;9.88;;;7.82;;
36797;SDS011;22748;8.426;99.512;2023-03-23T07:02:40;9.73;;;7.78;;
36797;SDS011;22748;8.426;99.512;2023-03-23T07:05:11;8.43;;;6.97;;
36797;SDS011;22748;8.426;99.512;2023-03-23T07:07:51;7.82;;;6.18;;
36797;SDS011;22748;8.426;99.512;2023-03-23T07:12:51;10.90;;;7.72;;
36797;SDS011;22748;8.426;99.512;2023-03-23T07:15:24;10.40;;;7.03;;
36797;SDS011;22748;8.426;99.512;2023-03-23T07:17:54;21.25;;;7.72;;
36797;SDS011;22748;8.426;99.512;2023-03-23T07:20:25;10.05;;;7.53;;
36797;SDS011;22748;8.426;99.512;2023-03-23T07:23:03;14.48;;;6.95;;
36797;SDS011;22748;8.426;99.512;2023-03-23T07:25:35;12.85;;;9.05;;
36797;SDS011;22748;8.426;99.512;2023-03-23T07:28:07;12.65;;;7.85;;
36797;SDS011;22748;8.426;99.512;2023-03-23T07:30:45;17.88;;;9.60;;
36797;SDS011;22748;8.426;99.512;2023-03-23T07:33:16;8.10;;;7.18;;
36797;SDS011;22748;8.426;99.512;2023-03-23T07:35:47;6.95;;;6.15;;
36797;SDS011;22748;8.426;99.512;2023-03-23T07:38:23;8.40;;;7.55;;
36797;SDS011;22748;8.426;99.512;2023-03-23T07:40:53;7.95;;;6.47;;
36797;SDS011;22748;8.426;99.512;2023-03-23T07:43:25;8.75;;;6.88;;
36797;SDS011;22748;8.426;99.512;2023-03-23T07:45:58;9.80;;;8.02;;
36797;SDS011;22748;8.426;99.512;2023-03-23T07:48:29;7.43;;;6.57;;
36797;SDS011;22748;8.426;99.512;2023-03-23T07:50:59;8.60;;;7.60;;
36797;SDS011;22748;8.426;99.512;2023-03-23T07:53:30;11.57;;;7.38;;
36797;SDS011;22748;8.426;99.512;2023-03-23T07:56:13;17.30;;;8.05;;
36797;SDS011;22748;8.426;99.512;2023-03-23T07:58:45;9.27;;;7.05;;
36797;SDS011;22748;8.426;99.512;2023-03-23T08:01:17;9.15;;;6.78;;
36797;SDS011;22748;8.426;99.512;2023-03-23T08:03:51;9.98;;;7.30;;
36797;SDS011;22748;8.426;99.512;2023-03-23T08:06:23;10.98;;;8.00;;
36797;SDS011;22748;8.426;99.512;2023-03-23T08:08:54;11.10;;;7.50;;
36797;SDS011;22748;8.426;99.512;2023-03-23T08:11:33;14.07;;;8.07;;
36797;SDS011;22748;8.426;99.512;2023-03-23T08:14:07;9.75;;;7.75;;
36797;SDS011;22748;8.426;99.512;2023-03-23T08:16:40;9.75;;;7.68;;
36797;SDS011;22748;8.426;99.512;2023-03-23T08:19:11;7.97;;;7.20;;
36797;SDS011;22748;8.426;99.512;2023-03-23T08:21:42;8.57;;;7.70;;
36797;SDS011;22748;8.426;99.512;2023-03-23T08:24:14;8.27;;;7.57;;
36797;SDS011;22748;8.426;99.512;2023-03-23T08:29:14;9.05;;;8.15;;
36797;SDS011;22748;8.426;99.512;2023-03-23T08:31:47;11.85;;;8.07;;
36797;SDS011;22748;8.426;99.512;2023-03-23T08:34:18;16.63;;;8.73;;
36797;SDS011;22748;8.426;99.512;2023-03-23T08:36:48;13.50;;;8.45;;
36797;SDS011;22748;8.426;99.512;2023-03-23T08:39:19;11.63;;;7.90;;
36797;SDS011;22748;8.426;99.512;2023-03-23T08:41:51;8.52;;;7.80;;
36797;SDS011;22748;8.426;99.512;2023-03-23T08:44:22;8.73;;;7.93;;
36797;SDS011;22748;8.426;99.512;2023-03-23T08:46:55;8.20;;;7.50;;
36797;SDS011;22748;8.426;99.512;2023-03-23T08:49:27;11.65;;;8.18;;
36797;SDS011;22748;8.426;99.512;2023-03-23T08:51:58;11.55;;;8.15;;
36797;SDS011;22748;8.426;99.512;2023-03-23T08:54:29;9.82;;;8.82;;
36797;SDS011;22748;8.426;99.512;2023-03-23T08:57:01;9.05;;;8.25;;
36797;SDS011;22748;8.426;99.512;2023-03-23T08:59:33;8.75;;;7.95;;
36797;SDS011;22748;8.426;99.512;2023-03-23T09:02:08;16.33;;;9.70;;
36797;SDS011;22748;8.426;99.512;2023-03-23T09:04:40;18.08;;;10.90;;
36797;SDS011;22748;8.426;99.512;2023-03-23T09:07:11;14.45;;;10.38;;
36797;SDS011;22748;8.426;99.512;2023-03-23T09:09:45;13.15;;;9.73;;
36797;SDS011;22748;8.426;99.512;2023-03-23T09:12:15;13.85;;;9.43;;
36797;SDS011;22748;8.426;99.512;2023-03-23T09:14:50;12.32;;;10.23;;
36797;SDS011;22748;8.426;99.512;2023-03-23T09:17:22;15.43;;;9.75;;
36797;SDS011;22748;8.426;99.512;2023-03-23T09:19:53;11.45;;;9.52;;
36797;SDS011;22748;8.426;99.512;2023-03-23T09:22:23;10.65;;;9.55;;
36797;SDS011;22748;8.426;99.512;2023-03-23T09:24:53;17.50;;;10.68;;
36797;SDS011;22748;8.426;99.512;2023-03-23T09:27:24;15.70;;;10.43;;
36797;SDS011;22748;8.426;99.512;2023-03-23T09:29:56;21.15;;;14.38;;
36797;SDS011;22748;8.426;99.512;2023-03-23T09:32:29;20.08;;;12.05;;
36797;SDS011;22748;8.426;99.512;2023-03-23T09:35:01;11.88;;;10.27;;
36797;SDS011;22748;8.426;99.512;2023-03-23T09:37:33;18.80;;;15.95;;
36797;SDS011;22748;8.426;99.512;2023-03-23T09:40:06;16.80;;;11.73;;
36797;SDS011;22748;8.426;99.512;2023-03-23T09:42:46;12.00;;;10.90;;
36797;SDS011;22748;8.426;99.512;2023-03-23T09:45:25;14.45;;;10.75;;
36797;SDS011;22748;8.426;99.512;2023-03-23T09:48:10;14.82;;;11.32;;
36797;SDS011;22748;8.426;99.512;2023-03-23T09:51:19;21.73;;;13.15;;
36797;SDS011;22748;8.426;99.512;2023-03-23T09:54:00;28.02;;;14.20;;
36797;SDS011;22748;8.426;99.512;2023-03-23T09:56:34;30.85;;;15.90;;
36797;SDS011;22748;8.426;99.512;2023-03-23T09:59:09;25.10;;;14.25;;
36797;SDS011;22748;8.426;99.512;2023-03-23T10:01:44;20.45;;;13.60;;
36797;SDS011;22748;8.426;99.512;2023-03-23T10:04:29;24.60;;;13.88;;
36797;SDS011;22748;8.426;99.512;2023-03-23T10:07:08;22.60;;;13.73;;
36797;SDS011;22748;8.426;99.512;2023-03-23T10:09:42;25.42;;;13.27;;
36797;SDS011;22748;8.426;99.512;2023-03-23T10:12:27;24.65;;;12.25;;
36797;SDS011;22748;8.426;99.512;2023-03-23T10:15:17;16.50;;;11.43;;
36797;SDS011;22748;8.426;99.512;2023-03-23T10:17:54;19.38;;;10.02;;
36797;SDS011;22748;8.426;99.512;2023-03-23T10:20:46;11.82;;;8.57;;
36797;SDS011;22748;8.426;99.512;2023-03-23T10:23:32;9.75;;;7.78;;
36797;SDS011;22748;8.426;99.512;2023-03-23T10:29:13;13.38;;;8.35;;
36797;SDS011;22748;8.426;99.512;2023-03-23T10:31:49;13.70;;;8.75;;
36797;SDS011;22748;8.426;99.512;2023-03-23T10:34:27;10.38;;;7.70;;
36797;SDS011;22748;8.426;99.512;2023-03-23T10:37:08;7.57;;;6.13;;
36797;SDS011;22748;8.426;99.512;2023-03-23T10:39:46;12.00;;;6.23;;
36797;SDS011;22748;8.426;99.512;2023-03-23T10:42:26;8.35;;;6.30;;
36797;SDS011;22748;8.426;99.512;2023-03-23T10:45:00;12.35;;;6.18;;
36797;SDS011;22748;8.426;99.512;2023-03-23T10:47:43;9.80;;;6.10;;
36797;SDS011;22748;8.426;99.512;2023-03-23T10:50:18;12.15;;;6.80;;
36797;SDS011;22748;8.426;99.512;2023-03-23T10:52:57;10.38;;;6.68;;
36797;SDS011;22748;8.426;99.512;2023-03-23T10:55:39;11.32;;;7.93;;
36797;SDS011;22748;8.426;99.512;2023-03-23T10:58:12;11.70;;;9.02;;
36797;SDS011;22748;8.426;99.512;2023-03-23T11:00:55;14.35;;;12.00;;
36797;SDS011;22748;8.426;99.512;2023-03-23T11:03:37;12.30;;;7.90;;
36797;SDS011;22748;8.426;99.512;2023-03-23T11:06:17;11.48;;;8.20;;
36797;SDS011;22748;8.426;99.512;2023-03-23T11:08:57;39.67;;;24.67;;
36797;SDS011;22748;8.426;99.512;2023-03-23T11:11:30;37.13;;;22.98;;
36797;SDS011;22748;8.426;99.512;2023-03-23T11:14:01;36.13;;;18.05;;
36797;SDS011;22748;8.426;99.512;2023-03-23T11:16:43;16.67;;;10.10;;
36797;SDS011;22748;8.426;99.512;2023-03-23T11:19:20;11.93;;;8.95;;
36797;SDS011;22748;8.426;99.512;2023-03-23T11:21:59;8.95;;;7.25;;
36797;SDS011;22748;8.426;99.512;2023-03-23T11:24:40;10.23;;;7.50;;
36797;SDS011;22748;8.426;99.512;2023-03-23T11:27:18;13.68;;;10.32;;
36797;SDS011;22748;8.426;99.512;2023-03-23T11:29:52;33.70;;;21.92;;
36797;SDS011;22748;8.426;99.512;2023-03-23T11:32:24;51.83;;;34.88;;
36797;SDS011;22748;8.426;99.512;2023-03-23T11:34:58;60.67;;;38.20;;
36797;SDS011;22748;8.426;99.512;2023-03-23T11:37:33;34.63;;;22.05;;
36797;SDS011;22748;8.426;99.512;2023-03-23T11:40:16;17.92;;;10.38;;
36797;SDS011;22748;8.426;99.512;2023-03-23T11:42:49;16.77;;;9.93;;
36797;SDS011;22748;8.426;99.512;2023-03-23T11:45:31;22.20;;;9.57;;
36797;SDS011;22748;8.426;99.512;2023-03-23T11:48:13;17.23;;;9.30;;
36797;SDS011;22748;8.426;99.512;2023-03-23T11:50:50;16.55;;;10.27;;
36797;SDS011;22748;8.426;99.512;2023-03-23T11:53:27;16.23;;;8.82;;
36797;SDS011;22748;8.426;99.512;2023-03-23T11:56:12;22.33;;;9.02;;
36797;SDS011;22748;8.426;99.512;2023-03-23T11:58:51;22.95;;;12.82;;
36797;SDS011;22748;8.426;99.512;2023-03-23T12:01:42;42.05;;;24.10;;
36797;SDS011;22748;8.426;99.512;2023-03-23T12:07:33;23.33;;;14.27;;
36797;SDS011;22748;8.426;99.512;2023-03-23T12:10:30;22.58;;;13.98;;
36797;SDS011;22748;8.426;99.512;2023-03-23T12:13:12;31.50;;;12.00;;
36797;SDS011;22748;8.426;99.512;2023-03-23T12:15:56;42.92;;;13.88;;
36797;SDS011;22748;8.426;99.512;2023-03-23T12:18:40;25.77;;;13.57;;
36797;SDS011;22748;8.426;99.512;2023-03-23T12:21:18;35.20;;;16.02;;
36797;SDS011;22748;8.426;99.512;2023-03-23T12:23:58;34.15;;;17.08;;
36797;SDS011;22748;8.426;99.512;2023-03-23T12:26:53;33.20;;;17.25;;
36797;SDS011;22748;8.426;99.512;2023-03-23T12:32:40;31.20;;;16.73;;
36797;SDS011;22748;8.426;99.512;2023-03-23T12:35:25;31.48;;;17.00;;
36797;SDS011;22748;8.426;99.512;2023-03-23T12:38:08;33.00;;;18.35;;
36797;SDS011;22748;8.426;99.512;2023-03-23T12:40:54;33.47;;;19.42;;
36797;SDS011;22748;8.426;99.512;2023-03-23T12:43:42;31.20;;;18.73;;
36797;SDS011;22748;8.426;99.512;2023-03-23T12:46:55;30.63;;;18.98;;
36797;SDS011;22748;8.426;99.512;2023-03-23T12:49:38;31.05;;;19.85;;
36797;SDS011;22748;8.426;99.512;2023-03-23T12:52:15;36.95;;;21.25;;
36797;SDS011;22748;8.426;99.512;2023-03-23T12:54:50;32.35;;;20.65;;
36797;SDS011;22748;8.426;99.512;2023-03-23T12:57:29;33.45;;;21.52;;
36797;SDS011;22748;8.426;99.512;2023-03-23T13:00:06;29.70;;;20.50;;
36797;SDS011;22748;8.426;99.512;2023-03-23T13:02:49;35.08;;;22.10;;
36797;SDS011;22748;8.426;99.512;2023-03-23T13:08:21;27.35;;;19.23;;
36797;SDS011;22748;8.426;99.512;2023-03-23T13:10:57;27.70;;;20.27;;
36797;SDS011;22748;8.426;99.512;2023-03-23T13:13:48;32.38;;;22.73;;
36797;SDS011;22748;8.426;99.512;2023-03-23T13:16:25;36.10;;;22.48;;
36797;SDS011;22748;8.426;99.512;2023-03-23T13:21:55;36.70;;;22.00;;
36797;SDS011;22748;8.426;99.512;2023-03-23T13:24:37;30.13;;;17.83;;
36797;SDS011;22748;8.426;99.512;2023-03-23T13:27:25;20.80;;;13.75;;
36797;SDS011;22748;8.426;99.512;2023-03-23T13:29:57;20.55;;;14.38;;
36797;SDS011;22748;8.426;99.512;2023-03-23T13:32:35;22.70;;;14.07;;
36797;SDS011;22748;8.426;99.512;2023-03-23T13:35:12;18.65;;;13.80;;
36797;SDS011;22748;8.426;99.512;2023-03-23T13:37:51;18.98;;;13.23;;
36797;SDS011;22748;8.426;99.512;2023-03-23T13:40:24;19.10;;;13.70;;
36797;SDS011;22748;8.426;99.512;2023-03-23T13:42:58;21.63;;;12.85;;
36797;SDS011;22748;8.426;99.512;2023-03-23T13:45:42;16.08;;;12.05;;
36797;SDS011;22748;8.426;99.512;2023-03-23T13:48:38;18.75;;;12.60;;
36797;SDS011;22748;8.426;99.512;2023-03-23T13:51:36;19.70;;;12.35;;
36797;SDS011;22748;8.426;99.512;2023-03-23T13:54:24;21.55;;;11.48;;
36797;SDS011;22748;8.426;99.512;2023-03-23T13:57:20;20.55;;;11.55;;
36797;SDS011;22748;8.426;99.512;2023-03-23T13:59:59;23.50;;;12.13;;
36797;SDS011;22748;8.426;99.512;2023-03-23T14:02:47;18.35;;;12.70;;
36797;SDS011;22748;8.426;99.512;2023-03-23T14:05:35;25.90;;;13.45;;
36797;SDS011;22748;8.426;99.512;2023-03-23T14:08:23;19.60;;;12.68;;
36797;SDS011;22748;8.426;99.512;2023-03-23T14:11:13;17.35;;;11.07;;
36797;SDS011;22748;8.426;99.512;2023-03-23T14:13:58;18.08;;;11.65;;
36797;SDS011;22748;8.426;99.512;2023-03-23T14:16:38;15.90;;;11.10;;
36797;SDS011;22748;8.426;99.512;2023-03-23T14:19:17;17.33;;;11.90;;
36797;SDS011;22748;8.426;99.512;2023-03-23T14:21:53;18.25;;;14.07;;
36797;SDS011;22748;8.426;99.512;2023-03-23T14:24:39;18.35;;;15.00;;
36797;SDS011;22748;8.426;99.512;2023-03-23T14:27:10;27.15;;;15.88;;
36797;SDS011;22748;8.426;99.512;2023-03-23T14:29:46;27.10;;;16.13;;
36797;SDS011;22748;8.426;99.512;2023-03-23T14:32:27;21.20;;;14.00;;
36797;SDS011;22748;8.426;99.512;2023-03-23T14:35:05;19.45;;;13.77;;
36797;SDS011;22748;8.426;99.512;2023-03-23T14:37:39;17.15;;;13.13;;
36797;SDS011;22748;8.426;99.512;2023-03-23T14:40:18;15.25;;;12.77;;
36797;SDS011;22748;8.426;99.512;2023-03-23T14:43:02;18.40;;;12.27;;
36797;SDS011;22748;8.426;99.512;2023-03-23T14:45:40;17.30;;;12.45;;
36797;SDS011;22748;8.426;99.512;2023-03-23T14:48:12;13.55;;;12.13;;
36797;SDS011;22748;8.426;99.512;2023-03-23T14:50:49;16.55;;;13.00;;
36797;SDS011;22748;8.426;99.512;2023-03-23T14:53:25;20.10;;;14.38;;
36797;SDS011;22748;8.426;99.512;2023-03-23T14:56:03;21.20;;;14.48;;
36797;SDS011;22748;8.426;99.512;2023-03-23T14:58:53;16.55;;;13.18;;
36797;SDS011;22748;8.426;99.512;2023-03-23T15:01:31;16.15;;;12.65;;
36797;SDS011;22748;8.426;99.512;2023-03-23T15:04:05;19.95;;;13.02;;
36797;SDS011;22748;8.426;99.512;2023-03-23T15:06:41;17.90;;;12.75;;
36797;SDS011;22748;8.426;99.512;2023-03-23T15:09:15;16.55;;;12.77;;
36797;SDS011;22748;8.426;99.512;2023-03-23T15:11:57;19.00;;;14.88;;
36797;SDS011;22748;8.426;99.512;2023-03-23T15:14:30;18.23;;;14.57;;
36797;SDS011;22748;8.426;99.512;2023-03-23T15:17:09;16.77;;;12.73;;
36797;SDS011;22748;8.426;99.512;2023-03-23T15:20:06;14.93;;;11.27;;
36797;SDS011;22748;8.426;99.512;2023-03-23T15:22:44;18.15;;;11.35;;
36797;SDS011;22748;8.426;99.512;2023-03-23T15:25:20;16.05;;;11.77;;
36797;SDS011;22748;8.426;99.512;2023-03-23T15:27:55;15.23;;;11.55;;
36797;SDS011;22748;8.426;99.512;2023-03-23T15:30:28;12.75;;;10.65;;
36797;SDS011;22748;8.426;99.512;2023-03-23T15:33:09;12.95;;;10.80;;
36797;SDS011;22748;8.426;99.512;2023-03-23T15:35:44;12.77;;;10.82;;
36797;SDS011;22748;8.426;99.512;2023-03-23T15:38:21;11.73;;;9.85;;
36797;SDS011;22748;8.426;99.512;2023-03-23T15:41:03;13.48;;;10.23;;
36797;SDS011;22748;8.426;99.512;2023-03-23T15:46:48;12.95;;;10.38;;
36797;SDS011;22748;8.426;99.512;2023-03-23T15:49:20;11.70;;;10.45;;
36797;SDS011;22748;8.426;99.512;2023-03-23T15:51:53;12.75;;;10.57;;
36797;SDS011;22748;8.426;99.512;2023-03-23T15:54:28;14.88;;;10.77;;
36797;SDS011;22748;8.426;99.512;2023-03-23T15:57:00;13.40;;;10.85;;
36797;SDS011;22748;8.426;99.512;2023-03-23T15:59:38;14.05;;;10.70;;
36797;SDS011;22748;8.426;99.512;2023-03-23T16:02:15;13.60;;;10.88;;